createdAt,value
2022-12-13T00:01:36.802Z,-8.50
2022-12-13T00:04:07.178Z,-8.30
2022-12-13T00:06:36.929Z,-8.30
2022-12-13T00:09:06.192Z,-8.30
2022-12-13T00:11:34.307Z,-8.10
2022-12-13T00:14:02.484Z,-8.10
2022-12-13T00:16:30.650Z,-8.10
2022-12-13T00:19:01.520Z,-8.20
2022-12-13T00:21:31.936Z,-8.30
2022-12-13T00:24:01.646Z,-8.40
2022-12-13T00:26:32.640Z,-8.50
2022-12-13T00:29:01.626Z,-8.60
2022-12-13T00:34:21.549Z,-8.60
2022-12-13T00:36:50.335Z,-8.60
2022-12-13T00:39:19.307Z,-8.60
2022-12-13T00:41:48.603Z,-8.60
2022-12-13T00:44:16.834Z,-8.60
2022-12-13T00:46:44.838Z,-8.60
2022-12-13T00:49:14.433Z,-8.70
2022-12-13T00:51:44.196Z,-8.70
2022-12-13T00:54:12.379Z,-8.80
2022-12-13T00:56:40.411Z,-8.90
2022-12-13T00:59:08.825Z,-9.10
2022-12-13T01:01:38.010Z,-9.20
2022-12-13T01:04:08.027Z,-9.30
2022-12-13T01:06:38.674Z,-9.40
2022-12-13T01:09:11.168Z,-9.50
2022-12-13T01:11:39.235Z,-9.60
2022-12-13T01:14:07.293Z,-9.70
2022-12-13T01:16:35.344Z,-9.70
2022-12-13T01:19:03.450Z,-9.70
2022-12-13T01:21:31.505Z,-9.70
2022-12-13T01:24:03.371Z,-9.70
2022-12-13T01:26:33.722Z,-9.70
2022-12-13T01:29:02.041Z,-9.70
2022-12-13T01:31:30.327Z,-9.70
2022-12-13T01:33:58.956Z,-9.70
2022-12-13T01:36:28.299Z,-9.80
2022-12-13T01:38:58.707Z,-9.80
2022-12-13T01:41:28.685Z,-9.80
2022-12-13T01:44:03.336Z,-9.90
2022-12-13T01:46:33.932Z,-10.00
2022-12-13T01:49:06.234Z,-10.10
2022-12-13T01:51:52.569Z,-10.00
2022-12-13T01:54:34.124Z,-10.10
2022-12-13T01:57:05.914Z,-10.10
2022-12-13T01:59:37.954Z,-10.20
2022-12-13T02:02:07.241Z,-10.20
2022-12-13T02:04:44.293Z,-10.10
2022-12-13T02:07:22.587Z,-10.20
2022-12-13T02:09:56.780Z,-10.20
2022-12-13T02:12:29.940Z,-10.10
2022-12-13T02:15:02.065Z,-10.10
2022-12-13T02:17:44.741Z,-9.90
2022-12-13T02:20:55.893Z,-9.60
2022-12-13T02:23:55.096Z,-9.50
2022-12-13T02:26:58.301Z,-9.40
2022-12-13T02:30:22.122Z,-9.30
2022-12-13T02:33:12.540Z,-9.30
2022-12-13T02:35:55.442Z,-9.40
2022-12-13T02:38:30.936Z,-9.30
2022-12-13T02:41:07.698Z,-9.30
2022-12-13T02:43:45.282Z,-9.30
2022-12-13T02:46:15.313Z,-9.30
2022-12-13T02:48:46.815Z,-9.40
2022-12-13T02:51:16.777Z,-9.40
2022-12-13T02:53:46.245Z,-9.40
2022-12-13T02:56:14.335Z,-9.40
2022-12-13T02:58:47.665Z,-9.30
2022-12-13T03:01:29.797Z,-9.30
2022-12-13T03:04:07.633Z,-9.30
2022-12-13T03:06:44.633Z,-9.30
2022-12-13T03:09:26.608Z,-9.30
2022-12-13T03:12:29.207Z,-9.30
2022-12-13T03:15:02.294Z,-9.30
2022-12-13T03:17:35.150Z,-9.20
2022-12-13T03:20:12.855Z,-9.20
2022-12-13T03:22:51.875Z,-9.30
2022-12-13T03:25:31.377Z,-9.30
2022-12-13T03:28:02.437Z,-9.40
2022-12-13T03:30:32.657Z,-9.40
2022-12-13T03:33:01.592Z,-9.30
2022-12-13T03:35:34.241Z,-9.30
2022-12-13T03:38:04.130Z,-9.30
2022-12-13T03:40:33.637Z,-9.20
2022-12-13T03:43:02.315Z,-9.20
2022-12-13T03:45:30.414Z,-9.10
2022-12-13T03:47:58.402Z,-9.00
2022-12-13T03:50:27.587Z,-8.90
2022-12-13T03:53:01.720Z,-8.80
2022-12-13T03:55:30.371Z,-8.70
2022-12-13T03:58:01.939Z,-8.60
2022-12-13T04:00:32.654Z,-8.50
2022-12-13T04:03:00.762Z,-8.50
2022-12-13T04:05:29.743Z,-8.40
2022-12-13T04:08:00.872Z,-8.30
2022-12-13T04:10:30.978Z,-8.20
2022-12-13T04:13:33.018Z,-8.10
2022-12-13T04:16:22.088Z,-8.00
2022-12-13T04:19:10.084Z,-7.90
2022-12-13T04:21:49.813Z,-7.90
2022-12-13T04:24:38.138Z,-7.90
2022-12-13T04:27:27.581Z,-7.80
2022-12-13T04:30:16.041Z,-7.80
2022-12-13T04:33:04.823Z,-7.80
2022-12-13T04:35:53.210Z,-7.80
2022-12-13T04:38:41.242Z,-7.80
2022-12-13T04:41:34.233Z,-7.70
2022-12-13T04:44:28.657Z,-7.70
2022-12-13T04:47:01.018Z,-6.90
2022-12-13T04:49:29.809Z,-7.70
2022-12-13T04:52:01.125Z,-7.70
2022-12-13T04:54:36.168Z,-7.70
2022-12-13T04:57:06.944Z,-7.70
2022-12-13T04:59:36.856Z,-7.70
2022-12-13T05:02:05.919Z,-7.70
2022-12-13T05:04:34.363Z,-7.70
2022-12-13T05:07:02.770Z,-7.70
2022-12-13T05:09:30.881Z,-7.70
2022-12-13T05:12:01.063Z,-7.70
2022-12-13T05:14:30.383Z,-7.80
2022-12-13T05:17:00.232Z,-7.80
2022-12-13T05:19:31.026Z,-7.70
2022-12-13T05:22:00.980Z,-7.70
2022-12-13T05:24:30.951Z,-7.70
2022-12-13T05:26:59.239Z,-7.70
2022-12-13T05:29:28.336Z,-7.70
2022-12-13T05:31:56.515Z,-7.70
2022-12-13T05:34:26.056Z,-7.70
2022-12-13T05:36:54.235Z,-7.70
2022-12-13T05:39:28.554Z,-7.70
2022-12-13T05:42:02.021Z,-7.70
2022-12-13T05:44:31.692Z,-7.80
2022-12-13T05:47:01.943Z,-7.70
2022-12-13T05:49:32.523Z,-7.70
2022-12-13T05:52:00.728Z,-7.70
2022-12-13T05:54:28.791Z,-7.70
2022-12-13T05:56:57.267Z,-7.60
2022-12-13T05:59:25.361Z,-7.60
2022-12-13T06:01:53.375Z,-7.60
2022-12-13T06:04:23.034Z,-7.60
2022-12-13T06:06:53.003Z,-7.60
2022-12-13T06:09:21.560Z,-7.60
2022-12-13T06:11:49.712Z,-7.60
2022-12-13T06:14:22.307Z,-7.60
2022-12-13T06:16:52.162Z,-7.50
2022-12-13T06:19:20.525Z,-7.50
2022-12-13T06:21:48.508Z,-7.50
2022-12-13T06:24:19.501Z,-7.50
2022-12-13T06:26:47.781Z,-7.50
2022-12-13T06:29:23.393Z,-7.50
2022-12-13T06:31:55.095Z,-7.40
2022-12-13T06:34:34.693Z,-7.40
2022-12-13T06:37:06.923Z,-7.40
2022-12-13T06:39:36.706Z,-7.40
2022-12-13T06:42:06.747Z,-7.10
2022-12-13T06:44:35.535Z,-7.30
2022-12-13T06:47:11.739Z,-7.30
2022-12-13T06:49:43.208Z,-7.20
2022-12-13T06:52:13.237Z,-7.30
2022-12-13T06:54:43.408Z,-7.30
2022-12-13T06:57:15.097Z,-7.30
2022-12-13T06:59:43.505Z,-7.30
2022-12-13T07:02:24.177Z,-7.30
2022-12-13T07:04:53.927Z,-7.20
2022-12-13T07:07:22.201Z,-7.30
2022-12-13T07:09:51.675Z,-7.30
2022-12-13T07:12:21.018Z,-7.40
2022-12-13T07:14:49.248Z,-7.40
2022-12-13T07:17:32.716Z,-7.50
2022-12-13T07:20:07.799Z,-7.50
2022-12-13T07:22:42.916Z,-7.60
2022-12-13T07:25:28.172Z,-7.60
2022-12-13T07:28:01.332Z,-7.60
2022-12-13T07:30:31.842Z,-7.60
2022-12-13T07:33:00.182Z,-7.60
2022-12-13T07:35:28.332Z,-7.60
2022-12-13T07:37:56.402Z,-7.70
2022-12-13T07:40:26.083Z,-7.70
2022-12-13T07:42:54.643Z,-7.70
2022-12-13T07:45:23.857Z,-7.70
2022-12-13T07:47:52.102Z,-7.70
2022-12-13T07:50:25.046Z,-7.60
2022-12-13T07:52:54.114Z,-7.60
2022-12-13T07:55:23.274Z,-7.60
2022-12-13T07:58:06.666Z,-7.60
2022-12-13T08:00:35.128Z,-7.60
2022-12-13T08:03:03.120Z,-7.50
2022-12-13T08:05:38.569Z,-7.40
2022-12-13T08:08:09.054Z,-7.20
2022-12-13T08:10:37.280Z,-7.20
2022-12-13T08:13:07.302Z,-7.20
2022-12-13T08:15:35.554Z,-7.20
2022-12-13T08:18:04.122Z,-7.20
2022-12-13T08:20:32.145Z,-7.30
2022-12-13T08:23:02.187Z,-7.30
2022-12-13T08:25:31.876Z,-7.20
2022-12-13T08:28:01.916Z,-7.20
2022-12-13T08:30:33.074Z,-7.20
2022-12-13T08:33:05.244Z,-7.20
2022-12-13T08:35:35.024Z,-7.10
2022-12-13T08:38:03.853Z,-7.10
2022-12-13T08:40:32.082Z,-7.00
2022-12-13T08:43:00.398Z,-7.00
2022-12-13T08:45:28.774Z,-7.00
2022-12-13T08:48:00.937Z,-7.00
2022-12-13T08:50:30.196Z,-6.40
2022-12-13T08:52:59.049Z,-6.90
2022-12-13T08:55:31.439Z,-5.90
2022-12-13T08:58:01.068Z,-5.50
2022-12-13T09:00:35.769Z,-6.00
2022-12-13T09:03:06.228Z,-6.70
2022-12-13T09:05:38.890Z,-5.40
2022-12-13T09:08:25.234Z,-6.60
2022-12-13T09:11:00.411Z,-6.50
2022-12-13T09:13:31.944Z,-6.10
2022-12-13T09:16:01.564Z,-6.00
2022-12-13T09:18:36.531Z,-6.10
2022-12-13T09:21:11.102Z,-4.60
2022-12-13T09:23:45.854Z,-6.10
2022-12-13T09:26:16.861Z,-6.20
2022-12-13T09:28:45.143Z,-4.90
2022-12-13T09:31:15.222Z,-6.00
2022-12-13T09:33:45.764Z,-5.90
2022-12-13T09:36:15.590Z,-4.50
2022-12-13T09:38:44.983Z,-5.80
2022-12-13T09:41:20.127Z,-5.80
2022-12-13T09:43:53.369Z,-5.90
2022-12-13T09:46:34.659Z,-5.90
2022-12-13T09:49:23.195Z,-4.60
2022-12-13T09:52:10.941Z,-4.70
2022-12-13T09:54:48.409Z,-4.50
2022-12-13T09:57:30.939Z,-5.80
2022-12-13T10:00:03.453Z,-5.70
2022-12-13T10:02:34.402Z,-4.60
2022-12-13T10:05:22.734Z,-4.40
2022-12-13T10:07:56.194Z,-4.60
2022-12-13T10:10:24.689Z,-5.70
2022-12-13T10:12:59.317Z,-5.00
2022-12-13T10:15:29.288Z,-4.30
2022-12-13T10:17:57.735Z,-4.20
2022-12-13T10:20:29.905Z,-5.40
2022-12-13T10:25:50.893Z,-3.90
2022-12-13T10:28:25.332Z,-5.00
2022-12-13T10:30:53.689Z,-4.80
2022-12-13T10:33:25.242Z,-4.70
2022-12-13T10:36:07.793Z,-4.40
2022-12-13T10:38:40.973Z,-4.20
2022-12-13T10:41:36.792Z,-4.00
2022-12-13T10:44:29.457Z,-3.90
2022-12-13T10:47:17.455Z,-3.70
2022-12-13T10:49:59.451Z,-3.50
2022-12-13T10:52:32.210Z,-3.60
2022-12-13T10:55:03.622Z,-3.40
2022-12-13T10:57:32.551Z,-3.20
2022-12-13T11:00:00.707Z,-3.20
2022-12-13T11:02:36.108Z,-2.60
2022-12-13T11:05:24.474Z,-2.40
2022-12-13T11:07:55.400Z,-2.00
2022-12-13T11:10:30.454Z,-2.20
2022-12-13T11:13:02.728Z,-2.30
2022-12-13T11:15:32.966Z,-2.00
2022-12-13T11:18:03.716Z,-1.80
2022-12-13T11:20:35.236Z,-1.60
2022-12-13T11:23:08.145Z,-1.50
2022-12-13T11:25:41.505Z,-1.40
2022-12-13T11:28:27.756Z,-1.20
2022-12-13T11:31:06.385Z,-1.70
2022-12-13T11:33:48.905Z,-2.50
2022-12-13T11:36:29.057Z,-2.60
2022-12-13T11:39:18.392Z,-2.80
2022-12-13T11:41:55.269Z,-2.90
2022-12-13T11:44:30.918Z,-2.50
2022-12-13T11:47:02.171Z,-2.10
2022-12-13T11:49:39.418Z,-2.50
2022-12-13T11:52:14.381Z,-3.00
2022-12-13T11:54:51.841Z,-2.90
2022-12-13T11:57:32.410Z,-2.90
2022-12-13T12:00:12.935Z,-2.90
2022-12-13T12:02:47.029Z,-3.00
2022-12-13T12:05:28.398Z,-3.20
2022-12-13T12:10:58.923Z,-3.30
2022-12-13T12:13:33.471Z,-3.30
2022-12-13T12:16:12.163Z,-3.30
2022-12-13T12:18:40.496Z,-3.10
2022-12-13T12:21:20.770Z,-3.00
2022-12-13T12:24:05.347Z,-2.90
2022-12-13T12:26:43.905Z,-2.60
2022-12-13T12:29:44.617Z,-2.50
2022-12-13T12:32:25.434Z,-2.40
2022-12-13T12:35:02.547Z,-2.10
2022-12-13T12:37:42.130Z,-2.10
2022-12-13T12:41:14.672Z,-1.90
2022-12-13T12:43:38.606Z,-1.80
2022-12-13T12:46:17.033Z,-1.80
2022-12-13T12:49:18.107Z,-2.40
2022-12-13T12:51:54.178Z,-2.50
2022-12-13T12:54:37.811Z,-2.40
2022-12-13T12:57:15.363Z,-2.60
2022-12-13T13:00:01.344Z,-2.30
2022-12-13T13:02:38.254Z,-2.10
2022-12-13T13:05:16.243Z,-2.00
2022-12-13T13:07:51.426Z,-2.10
2022-12-13T13:10:29.301Z,-2.10
2022-12-13T13:13:11.712Z,-2.30
2022-12-13T13:15:58.933Z,-2.60
2022-12-13T13:18:51.599Z,-2.90
2022-12-13T13:21:44.594Z,-3.00
2022-12-13T13:24:24.897Z,-3.00
2022-12-13T13:26:55.857Z,-3.00
2022-12-13T13:29:36.585Z,-1.90
2022-12-13T13:32:28.296Z,-2.80
2022-12-13T13:35:53.241Z,-3.00
2022-12-13T13:39:01.016Z,-3.00
2022-12-13T13:41:56.176Z,-2.80
2022-12-13T13:44:56.203Z,-2.60
2022-12-13T13:47:45.442Z,-2.40
2022-12-13T13:50:52.116Z,-2.30
2022-12-13T13:54:03.073Z,-2.40
2022-12-13T13:56:50.083Z,-2.60
2022-12-13T13:59:58.907Z,-2.60
2022-12-13T14:03:32.916Z,-2.90
2022-12-13T14:06:47.253Z,-3.20
2022-12-13T14:09:50.985Z,-3.40
2022-12-13T14:12:52.843Z,-3.60
2022-12-13T14:15:52.440Z,-3.80
2022-12-13T14:19:14.659Z,-4.00
2022-12-13T14:21:57.607Z,-4.20
2022-12-13T14:24:39.820Z,-4.40
2022-12-13T14:27:18.316Z,-4.40
2022-12-13T14:29:57.949Z,-4.60
2022-12-13T14:32:29.023Z,-4.70
2022-12-13T14:34:58.085Z,-4.70
2022-12-13T14:37:30.517Z,-4.80
2022-12-13T14:39:59.511Z,-4.90
2022-12-13T14:42:30.697Z,-4.90
2022-12-13T14:45:14.416Z,-5.00
2022-12-13T14:47:43.373Z,-4.50
2022-12-13T14:50:17.844Z,-5.20
2022-12-13T14:52:48.912Z,-5.20
2022-12-13T14:55:26.728Z,-5.30
2022-12-13T14:57:56.134Z,-5.40
2022-12-13T15:00:28.088Z,-5.40
2022-12-13T15:02:58.257Z,-5.50
2022-12-13T15:05:29.066Z,-5.50
2022-12-13T15:07:59.484Z,-5.60
2022-12-13T15:10:40.853Z,-5.70
2022-12-13T15:13:23.415Z,-5.70
2022-12-13T15:15:55.085Z,-5.80
2022-12-13T15:18:25.543Z,-5.80
2022-12-13T15:20:56.381Z,-5.90
2022-12-13T15:23:29.055Z,-5.90
2022-12-13T15:26:00.219Z,-5.90
2022-12-13T15:28:31.807Z,-6.00
2022-12-13T15:31:01.625Z,-6.00
2022-12-13T15:33:34.339Z,-6.00
2022-12-13T15:36:08.991Z,-6.10
2022-12-13T15:38:41.563Z,-6.10
2022-12-13T15:41:17.882Z,-6.10
2022-12-13T15:43:48.433Z,-6.20
2022-12-13T15:46:25.628Z,-6.20
2022-12-13T15:48:54.568Z,-6.30
2022-12-13T15:51:28.871Z,-6.30
2022-12-13T15:54:05.967Z,-6.30
2022-12-13T15:56:36.878Z,-6.30
2022-12-13T15:59:06.363Z,-6.30
2022-12-13T16:01:36.339Z,-6.30
2022-12-13T16:04:06.145Z,-6.20
2022-12-13T16:06:35.266Z,-6.20
2022-12-13T16:09:07.995Z,-6.20
2022-12-13T16:11:40.193Z,-6.20
2022-12-13T16:14:28.882Z,-6.20
2022-12-13T16:16:58.158Z,-6.10
2022-12-13T16:19:27.599Z,-5.70
2022-12-13T16:21:55.901Z,-6.10
2022-12-13T16:24:25.446Z,-6.10
2022-12-13T16:26:53.413Z,-6.10
2022-12-13T16:29:21.902Z,-6.00
2022-12-13T16:31:50.577Z,-6.00
2022-12-13T16:34:19.686Z,-6.00
2022-12-13T16:36:54.417Z,-6.00
2022-12-13T16:39:22.421Z,-5.60
2022-12-13T16:41:51.895Z,-5.90
2022-12-13T16:44:27.282Z,-5.90
2022-12-13T16:47:11.689Z,-6.00
2022-12-13T16:49:43.908Z,-6.00
2022-12-13T16:52:12.166Z,-6.00
2022-12-13T16:54:40.176Z,-6.00
2022-12-13T16:57:10.526Z,-6.00
2022-12-13T16:59:38.534Z,-6.00
2022-12-13T17:02:06.636Z,-6.00
2022-12-13T17:04:34.769Z,-6.00
2022-12-13T17:07:02.731Z,-6.10
2022-12-13T17:09:30.792Z,-6.10
2022-12-13T17:11:58.833Z,-6.20
2022-12-13T17:14:28.680Z,-6.20
2022-12-13T17:16:56.783Z,-6.20
2022-12-13T17:19:24.876Z,-6.20
2022-12-13T17:21:53.341Z,-6.20
2022-12-13T17:24:21.518Z,-6.20
2022-12-13T17:26:54.265Z,-6.20
2022-12-13T17:29:24.048Z,-6.20
2022-12-13T17:31:54.337Z,-6.20
2022-12-13T17:34:22.620Z,-6.20
2022-12-13T17:36:50.688Z,-6.20
2022-12-13T17:39:18.887Z,-6.20
2022-12-13T17:41:55.346Z,-6.20
2022-12-13T17:44:24.625Z,-6.10
2022-12-13T17:46:55.346Z,-6.10
2022-12-13T17:49:24.195Z,-6.10
2022-12-13T17:51:54.044Z,-6.20
2022-12-13T17:54:22.905Z,-6.20
2022-12-13T17:56:51.441Z,-6.20
2022-12-13T17:59:19.627Z,-6.30
2022-12-13T18:01:48.410Z,-6.30
2022-12-13T18:04:18.111Z,-6.40
2022-12-13T18:06:46.030Z,-6.50
2022-12-13T18:09:14.722Z,-6.50
2022-12-13T18:11:43.130Z,-6.50
2022-12-13T18:14:11.066Z,-6.50
2022-12-13T18:16:39.421Z,-6.60
2022-12-13T18:19:09.271Z,-6.60
2022-12-13T18:21:39.115Z,-6.70
2022-12-13T18:24:07.793Z,-6.70
2022-12-13T18:26:35.968Z,-6.70
2022-12-13T18:29:04.795Z,-6.80
2022-12-13T18:31:33.157Z,-6.80
2022-12-13T18:34:01.368Z,-6.80
2022-12-13T18:36:30.076Z,-6.80
2022-12-13T18:38:59.882Z,-6.80
2022-12-13T18:41:29.722Z,-6.90
2022-12-13T18:43:59.991Z,-6.90
2022-12-13T18:46:29.045Z,-6.80
2022-12-13T18:48:57.940Z,-6.80
2022-12-13T18:51:26.851Z,-6.80
2022-12-13T18:53:56.077Z,-6.70
2022-12-13T18:56:26.140Z,-6.60
2022-12-13T18:58:54.719Z,-6.80
2022-12-13T19:01:26.965Z,-6.80
2022-12-13T19:03:56.127Z,-6.80
2022-12-13T19:06:25.795Z,-6.80
2022-12-13T19:08:56.407Z,-6.80
2022-12-13T19:11:27.902Z,-6.80
2022-12-13T19:13:56.425Z,-6.80
2022-12-13T19:16:26.003Z,-6.80
2022-12-13T19:18:54.193Z,-6.70
2022-12-13T19:21:23.782Z,-6.60
2022-12-13T19:23:57.310Z,-5.50
2022-12-13T19:26:28.195Z,-6.10
2022-12-13T19:28:57.804Z,-6.50
2022-12-13T19:31:30.851Z,-6.50
2022-12-13T19:34:01.191Z,-6.50
2022-12-13T19:36:30.344Z,-6.50
2022-12-13T19:38:58.788Z,-6.50
2022-12-13T19:41:28.499Z,-6.50
2022-12-13T19:43:56.796Z,-6.50
2022-12-13T19:46:25.161Z,-6.40
2022-12-13T19:48:53.329Z,-6.40
2022-12-13T19:51:21.583Z,-6.40
2022-12-13T19:53:50.105Z,-6.30
2022-12-13T19:56:20.642Z,-6.30
2022-12-13T19:58:51.389Z,-6.30
2022-12-13T20:01:19.982Z,-6.20
2022-12-13T20:03:48.869Z,-6.10
2022-12-13T20:06:19.155Z,-6.20
2022-12-13T20:08:47.391Z,-6.10
2022-12-13T20:11:19.275Z,-6.10
2022-12-13T20:13:49.749Z,-6.10
2022-12-13T20:16:19.509Z,-6.10
2022-12-13T20:18:48.865Z,-6.00
2022-12-13T20:21:17.123Z,-6.00
2022-12-13T20:23:49.337Z,-6.00
2022-12-13T20:26:20.692Z,-6.00
2022-12-13T20:28:50.854Z,-6.00
2022-12-13T20:31:20.791Z,-6.00
2022-12-13T20:33:49.687Z,-6.00
2022-12-13T20:36:24.819Z,-6.00
2022-12-13T20:38:55.208Z,-6.00
2022-12-13T20:41:23.635Z,-6.00
2022-12-13T20:43:54.305Z,-6.00
2022-12-13T20:46:23.230Z,-6.00
2022-12-13T20:48:52.426Z,-6.10
2022-12-13T20:51:22.722Z,-6.00
2022-12-13T20:53:52.167Z,-6.00
2022-12-13T20:56:22.865Z,-6.00
2022-12-13T20:58:52.060Z,-6.00
2022-12-13T21:01:24.696Z,-6.00
2022-12-13T21:03:55.160Z,-6.00
2022-12-13T21:06:23.254Z,-6.10
2022-12-13T21:08:54.543Z,-6.10
2022-12-13T21:11:27.485Z,-6.10
2022-12-13T21:14:03.663Z,-6.10
2022-12-13T21:16:38.601Z,-6.10
2022-12-13T21:19:07.027Z,-6.10
2022-12-13T21:21:35.283Z,-6.10
2022-12-13T21:24:03.600Z,-6.10
2022-12-13T21:26:35.798Z,-6.10
2022-12-13T21:29:06.823Z,-5.40
2022-12-13T21:31:37.255Z,-6.10
2022-12-13T21:34:07.024Z,-6.10
2022-12-13T21:36:36.653Z,-6.20
2022-12-13T21:39:07.174Z,-6.20
2022-12-13T21:41:35.257Z,-6.10
2022-12-13T21:44:03.334Z,-6.10
2022-12-13T21:47:09.745Z,-6.10
2022-12-13T21:49:20.988Z,-6.10
2022-12-13T21:51:49.043Z,-6.00
2022-12-13T21:54:18.462Z,-6.00
2022-12-13T21:57:03.735Z,-5.90
2022-12-13T21:59:32.056Z,-5.90
2022-12-13T22:02:14.952Z,-5.90
2022-12-13T22:04:46.773Z,-5.90
2022-12-13T22:07:16.730Z,-5.90
2022-12-13T22:09:45.572Z,-5.90
2022-12-13T22:12:21.047Z,-5.90
2022-12-13T22:14:49.504Z,-5.80
2022-12-13T22:17:17.940Z,-5.80
2022-12-13T22:19:48.984Z,-5.80
2022-12-13T22:22:17.598Z,-5.80
2022-12-13T22:24:51.412Z,-5.80
2022-12-13T22:27:23.866Z,-5.80
2022-12-13T22:29:53.391Z,-5.80
2022-12-13T22:32:21.619Z,-5.80
2022-12-13T22:34:51.047Z,-5.80
2022-12-13T22:37:19.084Z,-5.80
2022-12-13T22:39:47.121Z,-5.80
2022-12-13T22:42:15.484Z,-5.80
2022-12-13T22:44:43.717Z,-5.80
2022-12-13T22:47:11.809Z,-5.80
2022-12-13T22:49:40.145Z,-5.80
2022-12-13T22:52:09.607Z,-5.80
2022-12-13T22:54:37.707Z,-5.80
2022-12-13T22:57:05.956Z,-5.80
2022-12-13T22:59:34.123Z,-5.70
2022-12-13T23:02:03.782Z,-5.80
2022-12-13T23:04:32.737Z,-5.80
2022-12-13T23:07:00.776Z,-5.80
2022-12-13T23:09:30.467Z,-5.80
2022-12-13T23:12:27.250Z,-5.70
2022-12-13T23:14:55.258Z,-5.80
2022-12-13T23:17:23.272Z,-5.80
2022-12-13T23:19:53.336Z,-5.80
2022-12-13T23:22:22.702Z,-5.80
2022-12-13T23:24:52.368Z,-5.80
2022-12-13T23:27:22.036Z,-5.80
2022-12-13T23:29:50.130Z,-5.80
2022-12-13T23:32:18.483Z,-5.80
2022-12-13T23:34:46.535Z,-5.80
2022-12-13T23:37:14.642Z,-5.80
2022-12-13T23:39:42.657Z,-5.80
2022-12-13T23:42:12.046Z,-5.80
2022-12-13T23:44:40.069Z,-5.80
2022-12-13T23:47:08.222Z,-5.80
2022-12-13T23:49:36.324Z,-5.80
2022-12-13T23:52:04.344Z,-5.80
2022-12-13T23:54:32.338Z,-5.90
2022-12-13T23:57:00.304Z,-5.80
2022-12-13T23:59:30.037Z,-4.80
